sensor_id;sensor_type;location;lat;lon;timestamp;pressure;altitude;pressure_sealevel;temperature;humidity
38616;BME280;24370;51.986;4.666;2022-09-13T00:01:12;101051.84;;;31.49;36.16
38616;BME280;24370;51.986;4.666;2022-09-13T00:03:37;101047.34;;;31.01;37.44
38616;BME280;24370;51.986;4.666;2022-09-13T00:06:11;101042.22;;;30.98;37.17
38616;BME280;24370;51.986;4.666;2022-09-13T00:08:37;101034.25;;;31.25;36.68
38616;BME280;24370;51.986;4.666;2022-09-13T00:11:03;101039.56;;;31.65;36.05
38616;BME280;24370;51.986;4.666;2022-09-13T00:13:28;101037.78;;;31.83;35.71
38616;BME280;24370;51.986;4.666;2022-09-13T00:15:54;101034.75;;;31.49;36.45
38616;BME280;24370;51.986;4.666;2022-09-13T00:18:19;101037.56;;;31.00;37.48
38616;BME280;24370;51.986;4.666;2022-09-13T00:20:45;101034.34;;;31.53;36.22
38616;BME280;24370;51.986;4.666;2022-09-13T00:23:10;101034.97;;;31.75;35.69
38616;BME280;24370;51.986;4.666;2022-09-13T00:25:36;101039.81;;;31.14;37.25
38616;BME280;24370;51.986;4.666;2022-09-13T00:28:03;101030.22;;;31.49;36.58
38616;BME280;24370;51.986;4.666;2022-09-13T00:30:29;101027.41;;;31.41;36.96
38616;BME280;24370;51.986;4.666;2022-09-13T00:32:54;101024.97;;;31.38;37.10
38616;BME280;24370;51.986;4.666;2022-09-13T00:35:20;101029.53;;;31.37;37.23
38616;BME280;24370;51.986;4.666;2022-09-13T00:37:45;101031.97;;;31.30;37.29
38616;BME280;24370;51.986;4.666;2022-09-13T00:40:11;101034.97;;;31.27;37.46
38616;BME280;24370;51.986;4.666;2022-09-13T00:42:36;101031.97;;;31.30;37.40
38616;BME280;24370;51.986;4.666;2022-09-13T00:45:15;101029.44;;;31.29;37.16
38616;BME280;24370;51.986;4.666;2022-09-13T00:47:45;101028.59;;;31.19;37.46
38616;BME280;24370;51.986;4.666;2022-09-13T00:52:44;101030.66;;;31.44;36.96
38616;BME280;24370;51.986;4.666;2022-09-13T00:55:20;101040.03;;;31.88;36.05
38616;BME280;24370;51.986;4.666;2022-09-13T00:57:47;101042.28;;;31.55;36.61
38616;BME280;24370;51.986;4.666;2022-09-13T01:00:15;101034.53;;;31.32;37.05
38616;BME280;24370;51.986;4.666;2022-09-13T01:02:46;101036.81;;;31.17;37.41
38616;BME280;24370;51.986;4.666;2022-09-13T01:05:15;101042.44;;;31.43;37.00
38616;BME280;24370;51.986;4.666;2022-09-13T01:07:43;101051.03;;;31.29;37.13
38616;BME280;24370;51.986;4.666;2022-09-13T01:10:08;101063.41;;;30.63;38.50
38616;BME280;24370;51.986;4.666;2022-09-13T01:12:53;101057.31;;;30.90;37.57
38616;BME280;24370;51.986;4.666;2022-09-13T01:15:21;101053.03;;;31.07;37.62
38616;BME280;24370;51.986;4.666;2022-09-13T01:17:47;101049.75;;;31.23;37.10
38616;BME280;24370;51.986;4.666;2022-09-13T01:20:14;101044.53;;;31.12;37.37
38616;BME280;24370;51.986;4.666;2022-09-13T01:29:19;101047.94;;;31.14;37.38
38616;BME280;24370;51.986;4.666;2022-09-13T01:38:00;101033.59;;;31.13;37.41
38616;BME280;24370;51.986;4.666;2022-09-13T01:41:05;101034.13;;;30.98;38.47
38616;BME280;24370;51.986;4.666;2022-09-13T01:43:51;101027.75;;;31.08;37.98
38616;BME280;24370;51.986;4.666;2022-09-13T01:46:29;101022.94;;;30.83;38.40
38616;BME280;24370;51.986;4.666;2022-09-13T01:51:53;101020.94;;;31.14;37.82
38616;BME280;24370;51.986;4.666;2022-09-13T01:57:00;101022.88;;;31.32;37.86
38616;BME280;24370;51.986;4.666;2022-09-13T01:59:38;101022.19;;;31.20;37.64
38616;BME280;24370;51.986;4.666;2022-09-13T02:02:13;101016.38;;;31.24;37.54
38616;BME280;24370;51.986;4.666;2022-09-13T02:04:52;101015.81;;;31.01;38.05
38616;BME280;24370;51.986;4.666;2022-09-13T02:07:23;101023.22;;;31.09;38.09
38616;BME280;24370;51.986;4.666;2022-09-13T02:09:58;101008.72;;;30.90;38.08
38616;BME280;24370;51.986;4.666;2022-09-13T02:12:27;101012.72;;;31.06;37.97
38616;BME280;24370;51.986;4.666;2022-09-13T02:15:05;101011.84;;;31.15;38.15
38616;BME280;24370;51.986;4.666;2022-09-13T02:17:36;101013.69;;;31.05;38.40
38616;BME280;24370;51.986;4.666;2022-09-13T02:20:18;101016.59;;;31.41;37.60
38616;BME280;24370;51.986;4.666;2022-09-13T02:22:50;101009.09;;;31.35;37.83
38616;BME280;24370;51.986;4.666;2022-09-13T02:25:19;101012.31;;;31.48;37.38
38616;BME280;24370;51.986;4.666;2022-09-13T02:27:49;101021.47;;;30.98;38.12
38616;BME280;24370;51.986;4.666;2022-09-13T02:30:17;101018.09;;;31.06;37.97
38616;BME280;24370;51.986;4.666;2022-09-13T02:32:53;101026.47;;;31.70;36.97
38616;BME280;24370;51.986;4.666;2022-09-13T02:35:29;101017.50;;;31.22;37.72
38616;BME280;24370;51.986;4.666;2022-09-13T02:38:01;101023.22;;;31.09;37.62
38616;BME280;24370;51.986;4.666;2022-09-13T02:40:32;101024.91;;;31.10;37.95
38616;BME280;24370;51.986;4.666;2022-09-13T02:43:23;101022.22;;;31.10;37.78
38616;BME280;24370;51.986;4.666;2022-09-13T02:51:43;101019.94;;;31.15;37.91
38616;BME280;24370;51.986;4.666;2022-09-13T02:54:32;101012.53;;;31.17;37.60
38616;BME280;24370;51.986;4.666;2022-09-13T02:57:13;101011.00;;;31.05;37.91
38616;BME280;24370;51.986;4.666;2022-09-13T02:59:44;101017.81;;;31.09;37.74
38616;BME280;24370;51.986;4.666;2022-09-13T03:02:13;101010.13;;;31.14;37.78
38616;BME280;24370;51.986;4.666;2022-09-13T03:04:41;101009.88;;;31.07;38.08
38616;BME280;24370;51.986;4.666;2022-09-13T03:07:13;101017.50;;;31.22;37.56
38616;BME280;24370;51.986;4.666;2022-09-13T03:09:44;101021.34;;;31.19;37.79
38616;BME280;24370;51.986;4.666;2022-09-13T03:15:59;101025.75;;;31.01;38.01
38616;BME280;24370;51.986;4.666;2022-09-13T03:18:30;101024.94;;;30.90;38.36
38616;BME280;24370;51.986;4.666;2022-09-13T03:24:13;101021.78;;;31.05;38.44
38616;BME280;24370;51.986;4.666;2022-09-13T03:30:01;101025.59;;;31.32;37.40
38616;BME280;24370;51.986;4.666;2022-09-13T03:33:31;101023.03;;;31.01;38.32
38616;BME280;24370;51.986;4.666;2022-09-13T03:35:43;101025.75;;;31.20;38.17
38616;BME280;24370;51.986;4.666;2022-09-13T03:38:25;101017.13;;;30.87;38.51
38616;BME280;24370;51.986;4.666;2022-09-13T03:41:03;101028.34;;;31.12;37.77
38616;BME280;24370;51.986;4.666;2022-09-13T03:43:32;101032.59;;;31.05;38.26
38616;BME280;24370;51.986;4.666;2022-09-13T03:46:07;101036.00;;;30.87;38.62
38616;BME280;24370;51.986;4.666;2022-09-13T03:48:35;101030.03;;;30.93;38.19
38616;BME280;24370;51.986;4.666;2022-09-13T03:51:05;101029.47;;;31.00;37.81
38616;BME280;24370;51.986;4.666;2022-09-13T03:53:35;101036.28;;;30.84;38.09
38616;BME280;24370;51.986;4.666;2022-09-13T03:56:14;101037.13;;;30.65;39.00
38616;BME280;24370;51.986;4.666;2022-09-13T03:58:40;101033.72;;;30.92;38.05
38616;BME280;24370;51.986;4.666;2022-09-13T04:01:06;101028.59;;;30.89;38.54
38616;BME280;24370;51.986;4.666;2022-09-13T04:03:34;101029.88;;;30.85;38.09
38616;BME280;24370;51.986;4.666;2022-09-13T04:06:00;101026.91;;;31.18;37.30
38616;BME280;24370;51.986;4.666;2022-09-13T04:08:25;101034.03;;;30.70;38.82
38616;BME280;24370;51.986;4.666;2022-09-13T04:10:51;101044.81;;;30.50;39.21
38616;BME280;24370;51.986;4.666;2022-09-13T04:13:16;101044.94;;;30.49;38.69
38616;BME280;24370;51.986;4.666;2022-09-13T04:15:42;101046.16;;;30.35;39.05
38616;BME280;24370;51.986;4.666;2022-09-13T04:18:07;101046.16;;;30.25;39.26
38616;BME280;24370;51.986;4.666;2022-09-13T04:20:33;101047.28;;;30.32;39.20
38616;BME280;24370;51.986;4.666;2022-09-13T04:23:00;101044.09;;;30.48;38.50
38616;BME280;24370;51.986;4.666;2022-09-13T04:25:25;101044.09;;;30.58;38.44
38616;BME280;24370;51.986;4.666;2022-09-13T04:27:54;101048.16;;;30.33;38.92
38616;BME280;24370;51.986;4.666;2022-09-13T04:30:20;101042.47;;;30.26;39.26
38616;BME280;24370;51.986;4.666;2022-09-13T04:32:46;101050.69;;;30.15;39.80
38616;BME280;24370;51.986;4.666;2022-09-13T04:35:11;101056.41;;;29.90;40.11
38616;BME280;24370;51.986;4.666;2022-09-13T04:37:37;101049.81;;;30.14;40.01
38616;BME280;24370;51.986;4.666;2022-09-13T04:40:04;101055.16;;;30.04;40.47
38616;BME280;24370;51.986;4.666;2022-09-13T04:42:30;101051.06;;;30.10;40.26
38616;BME280;24370;51.986;4.666;2022-09-13T04:44:56;101053.22;;;30.16;39.98
38616;BME280;24370;51.986;4.666;2022-09-13T04:47:21;101064.47;;;30.21;39.86
38616;BME280;24370;51.986;4.666;2022-09-13T04:49:47;101057.09;;;30.43;39.46
38616;BME280;24370;51.986;4.666;2022-09-13T04:52:13;101054.09;;;30.36;39.66
38616;BME280;24370;51.986;4.666;2022-09-13T04:54:38;101061.75;;;30.21;40.22
38616;BME280;24370;51.986;4.666;2022-09-13T04:57:03;101064.00;;;30.16;39.98
38616;BME280;24370;51.986;4.666;2022-09-13T04:59:30;101065.13;;;29.83;40.75
38616;BME280;24370;51.986;4.666;2022-09-13T05:01:56;101070.72;;;29.91;40.44
38616;BME280;24370;51.986;4.666;2022-09-13T05:04:21;101067.34;;;29.99;40.35
38616;BME280;24370;51.986;4.666;2022-09-13T05:06:46;101065.66;;;30.07;40.14
38616;BME280;24370;51.986;4.666;2022-09-13T05:09:13;101072.81;;;30.28;39.97
38616;BME280;24370;51.986;4.666;2022-09-13T05:11:39;101070.69;;;30.22;39.92
38616;BME280;24370;51.986;4.666;2022-09-13T05:14:05;101066.53;;;30.08;40.74
38616;BME280;24370;51.986;4.666;2022-09-13T05:16:32;101070.22;;;30.07;40.25
38616;BME280;24370;51.986;4.666;2022-09-13T05:18:58;101076.38;;;30.19;39.96
38616;BME280;24370;51.986;4.666;2022-09-13T05:21:25;101078.09;;;30.39;40.01
38616;BME280;24370;51.986;4.666;2022-09-13T05:23:53;101082.22;;;30.34;39.93
38616;BME280;24370;51.986;4.666;2022-09-13T05:26:20;101076.22;;;30.20;39.97
38616;BME280;24370;51.986;4.666;2022-09-13T05:28:45;101078.22;;;30.28;40.32
38616;BME280;24370;51.986;4.666;2022-09-13T05:31:14;101069.41;;;30.26;40.61
38616;BME280;24370;51.986;4.666;2022-09-13T05:33:41;101069.91;;;30.51;39.81
38616;BME280;24370;51.986;4.666;2022-09-13T05:36:06;101073.41;;;30.32;40.34
38616;BME280;24370;51.986;4.666;2022-09-13T05:38:32;101079.94;;;30.39;39.89
38616;BME280;24370;51.986;4.666;2022-09-13T05:40:59;101074.50;;;30.19;40.15
38616;BME280;24370;51.986;4.666;2022-09-13T05:43:27;101081.94;;;30.37;39.56
38616;BME280;24370;51.986;4.666;2022-09-13T05:46:08;101076.22;;;30.20;40.15
38616;BME280;24370;51.986;4.666;2022-09-13T05:48:35;101073.25;;;30.23;40.39
38616;BME280;24370;51.986;4.666;2022-09-13T05:51:12;101078.25;;;30.38;39.87
38616;BME280;24370;51.986;4.666;2022-09-13T05:53:39;101082.75;;;30.27;40.46
38616;BME280;24370;51.986;4.666;2022-09-13T05:56:07;101080.28;;;30.55;39.63
38616;BME280;24370;51.986;4.666;2022-09-13T05:58:33;101086.53;;;30.46;39.67
38616;BME280;24370;51.986;4.666;2022-09-13T06:00:59;101082.81;;;30.47;39.66
38616;BME280;24370;51.986;4.666;2022-09-13T06:03:25;101083.41;;;30.60;39.47
38616;BME280;24370;51.986;4.666;2022-09-13T06:05:57;101078.91;;;30.71;39.31
38616;BME280;24370;51.986;4.666;2022-09-13T06:08:26;101086.84;;;30.72;39.40
38616;BME280;24370;51.986;4.666;2022-09-13T06:11:01;101080.16;;;30.67;39.66
38616;BME280;24370;51.986;4.666;2022-09-13T06:13:27;101094.84;;;30.43;40.43
38616;BME280;24370;51.986;4.666;2022-09-13T06:15:55;101089.38;;;30.64;39.44
38616;BME280;24370;51.986;4.666;2022-09-13T06:18:21;101095.13;;;30.40;40.22
38616;BME280;24370;51.986;4.666;2022-09-13T06:20:47;101091.78;;;30.67;40.01
38616;BME280;24370;51.986;4.666;2022-09-13T06:23:13;101100.47;;;30.81;39.54
38616;BME280;24370;51.986;4.666;2022-09-13T06:25:39;101101.31;;;30.81;40.09
38616;BME280;24370;51.986;4.666;2022-09-13T06:28:05;101082.84;;;30.96;39.67
38616;BME280;24370;51.986;4.666;2022-09-13T06:30:30;101087.38;;;30.86;40.13
38616;BME280;24370;51.986;4.666;2022-09-13T06:32:56;101084.88;;;31.04;40.04
38616;BME280;24370;51.986;4.666;2022-09-13T06:35:21;101086.00;;;31.11;40.11
38616;BME280;24370;51.986;4.666;2022-09-13T06:37:47;101088.72;;;31.11;40.16
38616;BME280;24370;51.986;4.666;2022-09-13T06:40:12;101084.25;;;31.29;39.97
38616;BME280;24370;51.986;4.666;2022-09-13T06:42:38;101084.84;;;31.23;40.22
38616;BME280;24370;51.986;4.666;2022-09-13T06:45:04;101086.97;;;31.29;40.09
38616;BME280;24370;51.986;4.666;2022-09-13T06:47:30;101089.97;;;30.97;41.53
38616;BME280;24370;51.986;4.666;2022-09-13T06:49:56;101093.09;;;31.32;40.46
38616;BME280;24370;51.986;4.666;2022-09-13T06:52:21;101090.41;;;31.12;41.25
38616;BME280;24370;51.986;4.666;2022-09-13T06:54:47;101089.91;;;31.66;40.40
38616;BME280;24370;51.986;4.666;2022-09-13T06:57:12;101092.72;;;31.54;40.67
38616;BME280;24370;51.986;4.666;2022-09-13T06:59:38;101094.69;;;32.19;39.51
38616;BME280;24370;51.986;4.666;2022-09-13T07:02:03;101090.72;;;31.76;40.47
38616;BME280;24370;51.986;4.666;2022-09-13T07:04:29;101086.66;;;31.90;39.91
38616;BME280;24370;51.986;4.666;2022-09-13T07:06:58;101094.31;;;32.50;38.97
38616;BME280;24370;51.986;4.666;2022-09-13T07:09:24;101090.38;;;32.44;39.13
38616;BME280;24370;51.986;4.666;2022-09-13T07:11:54;101096.03;;;32.51;38.84
38616;BME280;24370;51.986;4.666;2022-09-13T07:14:27;101093.03;;;31.51;40.29
38616;BME280;24370;51.986;4.666;2022-09-13T07:16:53;101094.41;;;31.08;42.15
38616;BME280;24370;51.986;4.666;2022-09-13T07:19:21;101092.13;;;31.80;40.60
38616;BME280;24370;51.986;4.666;2022-09-13T07:21:47;101093.09;;;31.22;41.42
38616;BME280;24370;51.986;4.666;2022-09-13T07:24:14;101093.94;;;31.22;41.45
38616;BME280;24370;51.986;4.666;2022-09-13T07:26:39;101096.41;;;31.73;40.50
38616;BME280;24370;51.986;4.666;2022-09-13T07:29:07;101102.75;;;31.24;41.91
38616;BME280;24370;51.986;4.666;2022-09-13T07:31:37;101092.66;;;30.87;42.13
38616;BME280;24370;51.986;4.666;2022-09-13T07:34:05;101105.53;;;31.52;41.60
38616;BME280;24370;51.986;4.666;2022-09-13T07:36:32;101103.25;;;31.57;40.76
38616;BME280;24370;51.986;4.666;2022-09-13T07:38:58;101109.25;;;31.99;40.69
38616;BME280;24370;51.986;4.666;2022-09-13T07:41:25;101102.03;;;32.45;39.27
38616;BME280;24370;51.986;4.666;2022-09-13T07:43:51;101105.06;;;32.14;40.08
38616;BME280;24370;51.986;4.666;2022-09-13T07:46:19;101110.66;;;30.57;42.71
38616;BME280;24370;51.986;4.666;2022-09-13T07:48:46;101108.00;;;31.36;41.56
38616;BME280;24370;51.986;4.666;2022-09-13T07:51:17;101117.63;;;30.70;42.50
38616;BME280;24370;51.986;4.666;2022-09-13T07:53:44;101113.53;;;31.44;41.24
38616;BME280;24370;51.986;4.666;2022-09-13T07:56:12;101115.91;;;31.47;40.99
38616;BME280;24370;51.986;4.666;2022-09-13T07:58:39;101124.84;;;31.77;40.38
38616;BME280;24370;51.986;4.666;2022-09-13T08:01:20;101129.75;;;31.05;41.53
38616;BME280;24370;51.986;4.666;2022-09-13T08:03:55;101126.69;;;30.59;42.12
38616;BME280;24370;51.986;4.666;2022-09-13T08:06:22;101116.66;;;31.59;40.52
38616;BME280;24370;51.986;4.666;2022-09-13T08:08:48;101128.59;;;30.98;41.73
38616;BME280;24370;51.986;4.666;2022-09-13T08:11:22;101127.16;;;32.83;38.33
38616;BME280;24370;51.986;4.666;2022-09-13T08:13:49;101131.28;;;30.27;41.98
38616;BME280;24370;51.986;4.666;2022-09-13T08:16:16;101123.66;;;31.89;39.54
38616;BME280;24370;51.986;4.666;2022-09-13T08:18:47;101130.47;;;31.93;39.30
38616;BME280;24370;51.986;4.666;2022-09-13T08:21:13;101129.25;;;32.43;37.72
38616;BME280;24370;51.986;4.666;2022-09-13T08:23:39;101128.22;;;32.90;36.90
38616;BME280;24370;51.986;4.666;2022-09-13T08:26:06;101134.69;;;32.89;36.84
38616;BME280;24370;51.986;4.666;2022-09-13T08:28:33;101130.25;;;32.88;36.40
38616;BME280;24370;51.986;4.666;2022-09-13T08:31:08;101130.38;;;32.69;37.15
38616;BME280;24370;51.986;4.666;2022-09-13T08:33:35;101127.16;;;32.83;36.19
38616;BME280;24370;51.986;4.666;2022-09-13T08:36:01;101132.25;;;32.86;36.42
38616;BME280;24370;51.986;4.666;2022-09-13T08:38:27;101135.63;;;32.52;36.92
38616;BME280;24370;51.986;4.666;2022-09-13T08:40:59;101139.75;;;33.28;35.99
38616;BME280;24370;51.986;4.666;2022-09-13T08:43:44;101140.16;;;32.52;37.54
38616;BME280;24370;51.986;4.666;2022-09-13T08:46:29;101137.28;;;32.53;36.86
38616;BME280;24370;51.986;4.666;2022-09-13T08:49:03;101135.91;;;33.31;35.80
38616;BME280;24370;51.986;4.666;2022-09-13T08:54:01;101146.25;;;33.18;35.92
38616;BME280;24370;51.986;4.666;2022-09-13T08:59:15;101147.03;;;32.92;36.17
38616;BME280;24370;51.986;4.666;2022-09-13T09:07:51;101148.13;;;33.61;34.57
38616;BME280;24370;51.986;4.666;2022-09-13T09:10:24;101144.25;;;33.38;35.04
38616;BME280;24370;51.986;4.666;2022-09-13T09:12:58;101145.81;;;32.58;36.18
38616;BME280;24370;51.986;4.666;2022-09-13T09:15:31;101152.88;;;30.98;39.74
38616;BME280;24370;51.986;4.666;2022-09-13T09:20:45;101139.13;;;33.79;35.25
38616;BME280;24370;51.986;4.666;2022-09-13T09:23:18;101136.66;;;33.94;34.55
38616;BME280;24370;51.986;4.666;2022-09-13T09:25:45;101142.72;;;33.61;34.90
38616;BME280;24370;51.986;4.666;2022-09-13T09:28:13;101148.16;;;33.88;34.85
38616;BME280;24370;51.986;4.666;2022-09-13T09:30:48;101140.38;;;33.67;34.88
38616;BME280;24370;51.986;4.666;2022-09-13T09:36:10;101144.25;;;34.76;32.69
38616;BME280;24370;51.986;4.666;2022-09-13T09:38:40;101139.78;;;34.42;33.69
38616;BME280;24370;51.986;4.666;2022-09-13T09:41:26;101139.00;;;33.62;34.43
38616;BME280;24370;51.986;4.666;2022-09-13T09:46:20;101144.59;;;34.73;32.81
38616;BME280;24370;51.986;4.666;2022-09-13T09:48:53;101141.75;;;33.71;34.56
38616;BME280;24370;51.986;4.666;2022-09-13T09:51:19;101133.63;;;34.31;34.03
38616;BME280;24370;51.986;4.666;2022-09-13T09:53:47;101130.59;;;34.43;33.49
38616;BME280;24370;51.986;4.666;2022-09-13T09:56:24;101137.81;;;34.77;32.47
38616;BME280;24370;51.986;4.666;2022-09-13T09:58:51;101128.72;;;32.40;36.20
38616;BME280;24370;51.986;4.666;2022-09-13T10:01:27;101131.53;;;33.38;35.43
38616;BME280;24370;51.986;4.666;2022-09-13T10:06:39;101137.66;;;32.86;36.18
38616;BME280;24370;51.986;4.666;2022-09-13T10:09:17;101134.56;;;33.17;35.59
38616;BME280;24370;51.986;4.666;2022-09-13T10:11:51;101135.41;;;33.36;35.47
38616;BME280;24370;51.986;4.666;2022-09-13T10:19:52;101121.19;;;34.80;33.10
38616;BME280;24370;51.986;4.666;2022-09-13T10:22:18;101112.75;;;35.24;32.03
38616;BME280;24370;51.986;4.666;2022-09-13T10:24:44;101115.06;;;33.58;33.84
38616;BME280;24370;51.986;4.666;2022-09-13T10:27:37;101115.75;;;34.80;32.61
38616;BME280;24370;51.986;4.666;2022-09-13T10:30:04;101111.25;;;34.29;33.68
38616;BME280;24370;51.986;4.666;2022-09-13T10:32:30;101112.00;;;33.26;34.62
38616;BME280;24370;51.986;4.666;2022-09-13T10:35:06;101103.78;;;33.18;34.34
38616;BME280;24370;51.986;4.666;2022-09-13T10:37:33;101104.34;;;33.48;33.68
38616;BME280;24370;51.986;4.666;2022-09-13T10:42:30;101113.38;;;30.77;38.43
38616;BME280;24370;51.986;4.666;2022-09-13T10:45:01;101104.63;;;31.81;36.60
38616;BME280;24370;51.986;4.666;2022-09-13T10:47:38;101103.41;;;33.31;34.44
38616;BME280;24370;51.986;4.666;2022-09-13T10:50:27;101113.13;;;33.42;33.13
38616;BME280;24370;51.986;4.666;2022-09-13T10:52:54;101102.00;;;33.53;33.21
38616;BME280;24370;51.986;4.666;2022-09-13T10:55:30;101108.03;;;33.03;34.24
38616;BME280;24370;51.986;4.666;2022-09-13T11:00:38;101118.16;;;32.64;33.82
38616;BME280;24370;51.986;4.666;2022-09-13T11:03:42;101111.53;;;34.94;31.16
38616;BME280;24370;51.986;4.666;2022-09-13T11:06:18;101108.47;;;33.87;32.67
38616;BME280;24370;51.986;4.666;2022-09-13T11:11:17;101109.63;;;34.61;31.39
38616;BME280;24370;51.986;4.666;2022-09-13T11:13:58;101107.75;;;33.50;32.90
38616;BME280;24370;51.986;4.666;2022-09-13T11:27:45;101098.66;;;33.33;33.19
38616;BME280;24370;51.986;4.666;2022-09-13T11:30:17;101103.81;;;34.40;31.18
38616;BME280;24370;51.986;4.666;2022-09-13T11:35:52;101103.81;;;34.40;29.83
38616;BME280;24370;51.986;4.666;2022-09-13T11:47:39;101114.38;;;33.11;31.26
38616;BME280;24370;51.986;4.666;2022-09-13T11:55:14;101108.00;;;34.93;28.87
38616;BME280;24370;51.986;4.666;2022-09-13T11:57:51;101103.75;;;35.15;28.16
38616;BME280;24370;51.986;4.666;2022-09-13T12:00:21;101095.75;;;35.30;28.53
38616;BME280;24370;51.986;4.666;2022-09-13T12:05:22;101089.66;;;35.20;27.71
38616;BME280;24370;51.986;4.666;2022-09-13T12:08:15;101095.75;;;35.30;28.26
38616;BME280;24370;51.986;4.666;2022-09-13T12:11:18;101105.09;;;35.20;28.10
38616;BME280;24370;51.986;4.666;2022-09-13T12:13:48;101100.84;;;35.50;27.41
38616;BME280;24370;51.986;4.666;2022-09-13T12:16:45;101104.78;;;33.61;27.93
38616;BME280;24370;51.986;4.666;2022-09-13T12:19:25;101109.31;;;35.63;26.25
38616;BME280;24370;51.986;4.666;2022-09-13T12:21:54;101103.81;;;33.97;28.02
38616;BME280;24370;51.986;4.666;2022-09-13T12:24:51;101106.22;;;34.67;26.75
38616;BME280;24370;51.986;4.666;2022-09-13T12:32:31;101097.69;;;34.29;28.87
38616;BME280;24370;51.986;4.666;2022-09-13T12:35:01;101093.53;;;34.68;27.35
38616;BME280;24370;51.986;4.666;2022-09-13T12:51:31;101092.63;;;34.43;26.85
38616;BME280;24370;51.986;4.666;2022-09-13T13:00:09;101073.34;;;35.28;25.34
38616;BME280;24370;51.986;4.666;2022-09-13T13:02:41;101088.59;;;34.80;26.14
38616;BME280;24370;51.986;4.666;2022-09-13T13:05:36;101087.66;;;36.34;23.83
38616;BME280;24370;51.986;4.666;2022-09-13T13:08:06;101084.66;;;36.13;24.67
38616;BME280;24370;51.986;4.666;2022-09-13T13:10:41;101088.22;;;34.34;26.14
38616;BME280;24370;51.986;4.666;2022-09-13T13:13:13;101095.06;;;35.61;24.24
38616;BME280;24370;51.986;4.666;2022-09-13T13:23:26;101080.78;;;35.51;24.14
38616;BME280;24370;51.986;4.666;2022-09-13T13:39:32;101098.44;;;34.13;24.73
38616;BME280;24370;51.986;4.666;2022-09-13T13:57:30;101099.72;;;33.93;25.42
38616;BME280;24370;51.986;4.666;2022-09-13T14:08:35;101081.03;;;33.55;25.30
38616;BME280;24370;51.986;4.666;2022-09-13T14:22:19;101087.00;;;33.93;24.77
38616;BME280;24370;51.986;4.666;2022-09-13T14:24:51;101093.09;;;33.17;25.78
38616;BME280;24370;51.986;4.666;2022-09-13T14:27:24;101091.47;;;33.42;24.87
38616;BME280;24370;51.986;4.666;2022-09-13T14:29:52;101091.91;;;33.37;24.33
38616;BME280;24370;51.986;4.666;2022-09-13T14:32:21;101089.44;;;34.05;24.97
38616;BME280;24370;51.986;4.666;2022-09-13T14:34:59;101087.97;;;33.31;24.84
38616;BME280;24370;51.986;4.666;2022-09-13T14:37:31;101090.81;;;33.04;24.64
38616;BME280;24370;51.986;4.666;2022-09-13T14:39:58;101090.63;;;32.69;25.58
38616;BME280;24370;51.986;4.666;2022-09-13T14:42:25;101084.56;;;32.85;26.00
38616;BME280;24370;51.986;4.666;2022-09-13T14:44:51;101084.72;;;33.46;25.29
38616;BME280;24370;51.986;4.666;2022-09-13T14:47:38;101088.06;;;33.22;26.73
38616;BME280;24370;51.986;4.666;2022-09-13T14:50:13;101088.25;;;34.07;25.71
38616;BME280;24370;51.986;4.666;2022-09-13T14:52:47;101096.59;;;33.53;26.32
38616;BME280;24370;51.986;4.666;2022-09-13T14:55:17;101108.56;;;32.52;27.79
38616;BME280;24370;51.986;4.666;2022-09-13T14:57:48;101102.28;;;32.52;27.30
38616;BME280;24370;51.986;4.666;2022-09-13T15:00:17;101099.47;;;33.52;26.54
38616;BME280;24370;51.986;4.666;2022-09-13T15:02:52;101092.56;;;33.31;27.18
38616;BME280;24370;51.986;4.666;2022-09-13T15:05:21;101096.72;;;32.81;27.36
38616;BME280;24370;51.986;4.666;2022-09-13T15:07:47;101096.09;;;31.76;28.74
38616;BME280;24370;51.986;4.666;2022-09-13T15:10:23;101087.97;;;32.23;28.56
38616;BME280;24370;51.986;4.666;2022-09-13T15:15:33;101084.53;;;32.21;28.49
38616;BME280;24370;51.986;4.666;2022-09-13T15:23:29;101080.16;;;32.84;28.02
38616;BME280;24370;51.986;4.666;2022-09-13T15:26:09;101076.31;;;33.57;27.18
38616;BME280;24370;51.986;4.666;2022-09-13T15:28:49;101086.81;;;32.72;28.59
38616;BME280;24370;51.986;4.666;2022-09-13T15:31:34;101078.59;;;32.08;28.81
38616;BME280;24370;51.986;4.666;2022-09-13T15:39:41;101086.41;;;31.06;29.93
38616;BME280;24370;51.986;4.666;2022-09-13T15:42:07;101078.88;;;31.00;30.50
38616;BME280;24370;51.986;4.666;2022-09-13T15:44:33;101069.72;;;31.60;29.52
38616;BME280;24370;51.986;4.666;2022-09-13T15:47:00;101083.09;;;30.44;30.88
38616;BME280;24370;51.986;4.666;2022-09-13T15:49:29;101063.03;;;31.54;29.71
38616;BME280;24370;51.986;4.666;2022-09-13T15:52:00;101064.41;;;32.52;28.95
38616;BME280;24370;51.986;4.666;2022-09-13T15:54:34;101065.28;;;32.52;28.43
38616;BME280;24370;51.986;4.666;2022-09-13T15:57:00;101063.16;;;31.62;29.14
38616;BME280;24370;51.986;4.666;2022-09-13T15:59:25;101059.28;;;30.88;30.12
38616;BME280;24370;51.986;4.666;2022-09-13T16:01:51;101064.72;;;32.03;29.27
38616;BME280;24370;51.986;4.666;2022-09-13T16:04:17;101056.56;;;31.75;29.94
38616;BME280;24370;51.986;4.666;2022-09-13T16:06:43;101064.09;;;31.24;30.61
38616;BME280;24370;51.986;4.666;2022-09-13T16:09:29;101066.41;;;30.70;31.28
38616;BME280;24370;51.986;4.666;2022-09-13T16:11:54;101064.38;;;30.52;31.65
38616;BME280;24370;51.986;4.666;2022-09-13T16:14:20;101063.66;;;29.38;33.60
38616;BME280;24370;51.986;4.666;2022-09-13T16:16:46;101060.59;;;29.52;32.88
38616;BME280;24370;51.986;4.666;2022-09-13T16:19:20;101061.59;;;29.30;33.38
38616;BME280;24370;51.986;4.666;2022-09-13T16:21:46;101056.91;;;30.15;32.87
38616;BME280;24370;51.986;4.666;2022-09-13T16:24:12;101055.34;;;30.22;32.21
38616;BME280;24370;51.986;4.666;2022-09-13T16:26:38;101040.66;;;30.95;31.91